createdAt,value
2022-09-27T00:01:14.533Z,98.05
2022-09-27T00:03:42.840Z,97.68
2022-09-27T00:06:14.566Z,97.94
2022-09-27T00:08:43.558Z,97.78
2022-09-27T00:11:21.564Z,97.76
2022-09-27T00:13:49.374Z,98.06
2022-09-27T00:16:17.298Z,98.01
2022-09-27T00:18:45.301Z,97.77
2022-09-27T00:21:14.530Z,97.77
2022-09-27T00:23:42.957Z,97.78
2022-09-27T00:26:13.296Z,97.41
2022-09-27T00:28:42.611Z,97.35
2022-09-27T00:31:21.752Z,98.09
2022-09-27T00:33:50.486Z,98.43
2022-09-27T00:36:19.431Z,97.93
2022-09-27T00:38:47.820Z,98.37
2022-09-27T00:41:18.803Z,97.96
2022-09-27T00:43:51.495Z,98.57
2022-09-27T00:46:28.024Z,98.18
2022-09-27T00:49:05.967Z,98.97
2022-09-27T00:51:37.415Z,98.77
2022-09-27T00:54:07.655Z,98.30
2022-09-27T00:56:36.993Z,97.97
2022-09-27T00:59:10.239Z,97.66
2022-09-27T01:01:38.368Z,98.43
2022-09-27T01:04:10.039Z,98.07
2022-09-27T01:06:38.597Z,98.54
2022-09-27T01:09:08.035Z,99.10
2022-09-27T01:11:45.360Z,98.78
2022-09-27T01:14:37.824Z,98.05
2022-09-27T01:17:18.939Z,98.73
2022-09-27T01:20:19.720Z,98.97
2022-09-27T01:23:02.027Z,99.21
2022-09-27T01:25:53.655Z,98.65
2022-09-27T01:28:26.493Z,99.42
2022-09-27T01:31:03.546Z,98.85
2022-09-27T01:33:44.084Z,98.75
2022-09-27T01:36:29.871Z,99.05
2022-09-27T01:39:11.988Z,98.48
2022-09-27T01:41:47.271Z,97.98
2022-09-27T01:44:22.293Z,97.82
2022-09-27T01:46:54.154Z,98.54
2022-09-27T01:49:29.221Z,98.57
2022-09-27T01:52:01.077Z,99.07
2022-09-27T01:54:37.073Z,99.22
2022-09-27T01:57:07.626Z,98.92
2022-09-27T01:59:43.171Z,98.68
2022-09-27T02:02:13.695Z,99.58
2022-09-27T02:04:43.668Z,99.21
2022-09-27T02:07:16.697Z,98.74
2022-09-27T02:09:49.763Z,99.30
2022-09-27T02:12:24.322Z,99.07
2022-09-27T02:14:56.659Z,98.71
2022-09-27T02:17:36.483Z,99.35
2022-09-27T02:20:13.452Z,99.24
2022-09-27T02:22:46.899Z,98.97
2022-09-27T02:25:21.369Z,98.98
2022-09-27T02:27:58.493Z,98.92
2022-09-27T02:30:26.480Z,99.56
2022-09-27T02:32:56.017Z,98.77
2022-09-27T02:35:29.552Z,98.98
2022-09-27T02:37:58.477Z,98.95
2022-09-27T02:40:32.736Z,98.96
2022-09-27T02:43:02.330Z,98.68
2022-09-27T02:45:38.681Z,99.06
2022-09-27T02:48:18.652Z,98.48
2022-09-27T02:51:02.762Z,98.91
2022-09-27T02:53:40.433Z,99.03
2022-09-27T02:56:14.086Z,99.05
2022-09-27T02:58:55.505Z,98.68
2022-09-27T03:01:30.909Z,99.26
2022-09-27T03:04:06.562Z,98.73
2022-09-27T03:06:36.726Z,98.62
2022-09-27T03:09:04.690Z,98.01
2022-09-27T03:11:33.479Z,97.97
2022-09-27T03:14:08.908Z,98.51
2022-09-27T03:16:37.376Z,98.70
2022-09-27T03:19:06.697Z,97.42
2022-09-27T03:21:35.223Z,97.30
2022-09-27T03:24:03.435Z,97.78
2022-09-27T03:26:31.315Z,97.72
2022-09-27T03:28:59.205Z,97.93
2022-09-27T03:31:27.151Z,97.08
2022-09-27T03:33:55.223Z,97.80
2022-09-27T03:36:24.519Z,97.93
2022-09-27T03:38:52.340Z,97.71
2022-09-27T03:41:20.295Z,95.75
2022-09-27T03:43:48.089Z,95.59
2022-09-27T03:46:16.263Z,95.61
2022-09-27T03:48:44.231Z,95.88
2022-09-27T03:51:12.735Z,95.17
2022-09-27T03:53:42.807Z,95.61
2022-09-27T03:56:10.745Z,95.57
2022-09-27T03:58:38.564Z,95.12
2022-09-27T04:01:06.488Z,94.90
2022-09-27T04:03:35.018Z,94.87
2022-09-27T04:06:03.031Z,94.70
2022-09-27T04:08:31.073Z,94.08
2022-09-27T04:11:00.370Z,94.31
2022-09-27T04:13:28.204Z,94.27
2022-09-27T04:15:56.247Z,93.55
2022-09-27T04:18:24.124Z,94.45
2022-09-27T04:20:52.045Z,94.14
2022-09-27T04:23:20.597Z,92.80
2022-09-27T04:25:48.774Z,93.18
2022-09-27T04:28:18.070Z,93.09
2022-09-27T04:30:46.702Z,92.59
2022-09-27T04:33:14.926Z,92.30
2022-09-27T04:36:01.014Z,93.20
2022-09-27T04:38:28.857Z,93.73
2022-09-27T04:40:57.314Z,94.17
2022-09-27T04:43:26.674Z,93.98
2022-09-27T04:45:54.577Z,93.70
2022-09-27T04:48:22.498Z,93.81
2022-09-27T04:51:00.536Z,93.58
2022-09-27T04:53:29.653Z,94.21
2022-09-27T04:55:57.806Z,92.63
2022-09-27T04:58:27.180Z,93.36
2022-09-27T05:00:55.627Z,92.97
2022-09-27T05:03:23.649Z,94.29
2022-09-27T05:05:51.543Z,92.31
2022-09-27T05:08:19.417Z,92.17
2022-09-27T05:10:47.349Z,92.55
2022-09-27T05:13:15.352Z,92.25
2022-09-27T05:15:44.653Z,93.46
2022-09-27T05:18:12.818Z,92.17
2022-09-27T05:20:40.691Z,92.35
2022-09-27T05:23:08.519Z,92.76
2022-09-27T05:25:36.715Z,92.29
2022-09-27T05:28:06.107Z,92.28
2022-09-27T05:30:34.334Z,92.05
2022-09-27T05:33:03.574Z,90.87
2022-09-27T05:35:31.722Z,90.87
2022-09-27T05:38:01.395Z,90.95
2022-09-27T05:40:41.244Z,91.06
2022-09-27T05:43:09.801Z,92.21
2022-09-27T05:45:38.045Z,91.77
2022-09-27T05:48:07.602Z,91.39
2022-09-27T05:50:35.474Z,91.31
2022-09-27T05:53:03.327Z,91.57
2022-09-27T05:55:31.270Z,91.89
2022-09-27T05:58:00.905Z,92.67
2022-09-27T06:00:29.550Z,90.83
2022-09-27T06:02:58.987Z,90.83
2022-09-27T06:05:31.218Z,91.22
2022-09-27T06:08:01.041Z,89.65
2022-09-27T06:10:30.814Z,89.19
2022-09-27T06:13:02.364Z,90.84
2022-09-27T06:15:31.394Z,90.92
2022-09-27T06:18:04.613Z,91.03
2022-09-27T06:20:34.732Z,89.39
2022-09-27T06:23:07.470Z,89.14
2022-09-27T06:25:35.650Z,90.36
2022-09-27T06:28:03.893Z,88.69
2022-09-27T06:30:32.393Z,91.09
2022-09-27T06:33:02.379Z,87.94
2022-09-27T06:35:31.449Z,87.82
2022-09-27T06:38:04.869Z,88.44
2022-09-27T06:40:32.815Z,88.39
2022-09-27T06:43:03.994Z,87.92
2022-09-27T06:45:32.423Z,87.68
2022-09-27T06:48:02.522Z,88.10
2022-09-27T06:50:30.631Z,86.42
2022-09-27T06:52:58.670Z,85.74
2022-09-27T06:55:27.942Z,89.29
2022-09-27T06:58:13.516Z,87.06
2022-09-27T07:00:42.233Z,84.53
2022-09-27T07:03:11.824Z,84.66
2022-09-27T07:05:40.654Z,85.44
2022-09-27T07:08:11.928Z,84.27
2022-09-27T07:10:42.140Z,83.12
2022-09-27T07:13:12.137Z,84.92
2022-09-27T07:15:42.910Z,84.88
2022-09-27T07:18:10.870Z,83.08
2022-09-27T07:20:38.915Z,84.30
2022-09-27T07:23:07.857Z,82.42
2022-09-27T07:25:36.306Z,82.24
2022-09-27T07:28:08.845Z,83.13
2022-09-27T07:30:38.644Z,82.20
2022-09-27T07:33:07.529Z,81.28
2022-09-27T07:35:36.937Z,81.93
2022-09-27T07:38:05.322Z,82.11
2022-09-27T07:40:33.488Z,83.75
2022-09-27T07:43:01.565Z,82.71
2022-09-27T07:45:31.126Z,83.46
2022-09-27T07:47:59.384Z,81.34
2022-09-27T07:50:28.869Z,78.92
2022-09-27T07:52:56.906Z,79.30
2022-09-27T07:55:25.246Z,79.06
2022-09-27T07:57:53.641Z,77.75
2022-09-27T08:00:21.809Z,77.15
2022-09-27T08:02:51.244Z,76.85
2022-09-27T08:05:19.146Z,74.92
2022-09-27T08:07:47.088Z,76.94
2022-09-27T08:10:15.466Z,74.51
2022-09-27T08:12:43.400Z,75.64
2022-09-27T08:15:12.252Z,73.63
2022-09-27T08:17:40.246Z,76.55
2022-09-27T08:20:10.403Z,75.03
2022-09-27T08:22:41.607Z,73.18
2022-09-27T08:25:10.795Z,72.18
2022-09-27T08:27:38.745Z,70.98
2022-09-27T08:30:07.580Z,69.57
2022-09-27T08:32:37.058Z,71.49
2022-09-27T08:35:07.470Z,71.89
2022-09-27T08:37:36.796Z,73.37
2022-09-27T08:40:05.634Z,70.73
2022-09-27T08:42:45.044Z,71.27
2022-09-27T08:45:18.655Z,71.97
2022-09-27T08:47:50.447Z,70.00
2022-09-27T08:50:27.241Z,69.82
2022-09-27T08:53:00.942Z,66.96
2022-09-27T08:55:36.930Z,67.59
2022-09-27T08:58:13.293Z,69.41
2022-09-27T09:00:43.409Z,69.00
2022-09-27T09:03:19.422Z,68.24
2022-09-27T09:06:11.642Z,68.12
2022-09-27T09:08:53.711Z,65.87
2022-09-27T09:11:51.231Z,66.07
2022-09-27T09:15:00.543Z,65.23
2022-09-27T09:17:43.793Z,64.31
2022-09-27T09:20:23.216Z,64.94
2022-09-27T09:23:10.867Z,64.12
2022-09-27T09:25:50.697Z,65.64
2022-09-27T09:28:34.386Z,66.59
2022-09-27T09:31:11.348Z,67.54
2022-09-27T09:33:42.590Z,67.57
2022-09-27T09:36:19.682Z,66.22
2022-09-27T09:38:51.781Z,64.67
2022-09-27T09:41:24.676Z,64.00
2022-09-27T09:43:58.024Z,61.17
2022-09-27T09:46:34.515Z,59.55
2022-09-27T09:49:07.493Z,59.20
2022-09-27T09:51:42.374Z,59.49
2022-09-27T09:54:21.248Z,59.36
2022-09-27T09:56:57.329Z,61.23
2022-09-27T09:59:31.440Z,60.44
2022-09-27T10:02:11.780Z,60.02
2022-09-27T10:04:39.900Z,62.06
2022-09-27T10:07:09.700Z,63.98
2022-09-27T10:09:37.727Z,63.98
2022-09-27T10:12:07.148Z,63.64
2022-09-27T10:14:35.226Z,63.56
2022-09-27T10:17:07.565Z,62.11
2022-09-27T10:19:39.471Z,63.46
2022-09-27T10:22:16.775Z,60.94
2022-09-27T10:24:56.643Z,61.06
2022-09-27T10:27:26.846Z,59.55
2022-09-27T10:29:59.442Z,59.86
2022-09-27T10:32:31.366Z,58.66
2022-09-27T10:35:23.755Z,57.24
2022-09-27T10:37:52.643Z,58.75
2022-09-27T10:40:29.021Z,58.19
2022-09-27T10:42:58.391Z,56.71
2022-09-27T10:45:30.156Z,56.04
2022-09-27T10:47:59.162Z,53.93
2022-09-27T10:53:21.447Z,55.13
2022-09-27T10:55:51.819Z,56.84
2022-09-27T10:58:27.778Z,57.31
2022-09-27T11:00:58.725Z,59.07
2022-09-27T11:03:29.015Z,61.68
2022-09-27T11:05:59.412Z,63.40
2022-09-27T11:08:32.685Z,64.47
2022-09-27T11:11:17.437Z,64.00
2022-09-27T11:14:00.743Z,61.84
2022-09-27T11:16:48.123Z,60.62
2022-09-27T11:19:31.948Z,58.61
2022-09-27T11:22:10.756Z,59.62
2022-09-27T11:24:54.063Z,59.61
2022-09-27T11:27:32.263Z,60.49
2022-09-27T11:30:09.722Z,60.35
2022-09-27T11:33:05.932Z,60.90
2022-09-27T11:35:47.159Z,60.35
2022-09-27T11:38:47.928Z,58.95
2022-09-27T11:41:30.013Z,55.74
2022-09-27T11:44:19.763Z,57.19
2022-09-27T11:46:59.234Z,56.37
2022-09-27T11:49:43.844Z,56.18
2022-09-27T11:52:28.457Z,55.18
2022-09-27T11:55:14.311Z,55.04
2022-09-27T11:57:46.598Z,55.66
2022-09-27T12:00:23.968Z,56.32
2022-09-27T12:03:33.710Z,56.03
2022-09-27T12:06:11.859Z,55.27
2022-09-27T12:08:58.468Z,55.82
2022-09-27T12:11:30.398Z,56.85
2022-09-27T12:14:02.823Z,54.30
2022-09-27T12:16:32.452Z,53.62
2022-09-27T12:19:04.178Z,52.95
2022-09-27T12:21:34.501Z,52.81
2022-09-27T12:24:04.493Z,53.54
2022-09-27T12:26:38.732Z,51.41
2022-09-27T12:29:14.000Z,50.93
2022-09-27T12:31:45.658Z,51.80
2022-09-27T12:34:20.854Z,50.57
2022-09-27T12:36:54.305Z,50.24
2022-09-27T12:39:26.189Z,53.16
2022-09-27T12:42:02.313Z,53.38
2022-09-27T12:44:38.706Z,54.24
2022-09-27T12:47:14.658Z,54.90
2022-09-27T12:50:01.174Z,53.93
2022-09-27T12:52:34.302Z,53.37
2022-09-27T12:55:26.952Z,52.91
2022-09-27T12:58:12.742Z,52.47
2022-09-27T13:00:46.910Z,52.46
2022-09-27T13:03:32.549Z,52.77
2022-09-27T13:06:31.960Z,52.99
2022-09-27T13:09:21.489Z,52.64
2022-09-27T13:12:00.764Z,52.64
2022-09-27T13:14:34.372Z,52.74
2022-09-27T13:17:02.645Z,53.79
2022-09-27T13:19:45.561Z,53.02
2022-09-27T13:22:46.216Z,54.90
2022-09-27T13:25:55.595Z,53.89
2022-09-27T13:28:36.072Z,54.95
2022-09-27T13:31:05.498Z,54.09
2022-09-27T13:33:41.555Z,55.58
2022-09-27T13:36:21.581Z,55.68
2022-09-27T13:39:05.976Z,55.38
2022-09-27T13:42:01.303Z,54.14
2022-09-27T13:44:41.694Z,55.28
2022-09-27T13:47:24.241Z,55.72
2022-09-27T13:49:55.050Z,56.75
2022-09-27T13:52:28.878Z,57.65
2022-09-27T13:54:59.090Z,60.49
2022-09-27T13:57:50.800Z,61.53
2022-09-27T14:00:22.475Z,61.91
2022-09-27T14:02:59.829Z,62.75
2022-09-27T14:05:35.329Z,62.68
2022-09-27T14:08:05.583Z,63.25
2022-09-27T14:10:34.477Z,62.40
2022-09-27T14:13:07.149Z,61.96
2022-09-27T14:15:35.326Z,61.10
2022-09-27T14:18:03.336Z,62.37
2022-09-27T14:20:37.115Z,62.03
2022-09-27T14:23:05.692Z,62.03
2022-09-27T14:25:33.826Z,60.36
2022-09-27T14:28:03.109Z,60.90
2022-09-27T14:30:31.467Z,59.85
2022-09-27T14:33:02.322Z,59.40
2022-09-27T14:35:55.710Z,59.42
2022-09-27T14:38:38.239Z,59.77
2022-09-27T14:41:08.913Z,59.12
2022-09-27T14:43:44.755Z,59.95
2022-09-27T14:46:28.220Z,59.32
2022-09-27T14:48:56.839Z,58.08
2022-09-27T14:51:28.946Z,57.14
2022-09-27T14:54:00.641Z,59.38
2022-09-27T14:56:32.212Z,59.68
2022-09-27T14:59:06.532Z,58.77
2022-09-27T15:01:35.069Z,59.25
2022-09-27T15:04:07.438Z,60.62
2022-09-27T15:06:37.760Z,60.60
2022-09-27T15:09:07.172Z,61.48
2022-09-27T15:11:35.559Z,61.02
2022-09-27T15:14:06.233Z,62.07
2022-09-27T15:16:34.816Z,62.59
2022-09-27T15:19:04.756Z,61.88
2022-09-27T15:21:34.568Z,62.89
2022-09-27T15:24:03.611Z,63.18
2022-09-27T15:26:39.010Z,63.74
2022-09-27T15:29:20.207Z,64.52
2022-09-27T15:32:00.556Z,64.79
2022-09-27T15:34:29.951Z,66.02
2022-09-27T15:37:00.697Z,66.27
2022-09-27T15:39:32.428Z,67.83
2022-09-27T15:42:07.252Z,67.29
2022-09-27T15:44:46.001Z,67.48
2022-09-27T15:47:40.175Z,71.57
2022-09-27T15:50:33.695Z,74.90
2022-09-27T15:53:02.879Z,75.68
2022-09-27T15:55:33.380Z,77.48
2022-09-27T15:58:03.167Z,77.89
2022-09-27T16:00:33.002Z,78.07
2022-09-27T16:03:00.766Z,78.50
2022-09-27T16:05:30.329Z,78.35
2022-09-27T16:07:59.432Z,78.40
2022-09-27T16:10:35.487Z,78.42
2022-09-27T16:13:03.374Z,80.08
2022-09-27T16:15:33.081Z,79.60
2022-09-27T16:18:01.118Z,80.52
2022-09-27T16:20:29.405Z,80.83
2022-09-27T16:22:58.669Z,85.10
2022-09-27T16:25:27.114Z,87.49
2022-09-27T16:27:55.109Z,89.17
2022-09-27T16:30:22.977Z,89.98
2022-09-27T16:32:52.279Z,90.42
2022-09-27T16:35:22.034Z,88.12
2022-09-27T16:37:50.002Z,91.36
2022-09-27T16:40:19.059Z,91.13
2022-09-27T16:42:49.677Z,91.51
2022-09-27T16:45:19.709Z,90.40
2022-09-27T16:47:48.466Z,92.49
2022-09-27T16:50:35.210Z,92.06
2022-09-27T16:53:05.162Z,92.36
2022-09-27T16:55:32.979Z,91.88
2022-09-27T16:58:01.135Z,92.91
2022-09-27T17:00:29.374Z,91.96
2022-09-27T17:02:57.472Z,92.58
2022-09-27T17:05:27.413Z,91.89
2022-09-27T17:07:55.987Z,91.61
2022-09-27T17:10:24.387Z,91.89
2022-09-27T17:12:52.501Z,93.26
2022-09-27T17:15:20.477Z,92.28
2022-09-27T17:17:50.261Z,91.54
2022-09-27T17:20:18.840Z,92.83
2022-09-27T17:22:48.013Z,93.07
2022-09-27T17:25:16.055Z,93.17
2022-09-27T17:27:44.001Z,94.66
2022-09-27T17:30:12.639Z,95.44
2022-09-27T17:32:40.520Z,94.53
2022-09-27T17:35:09.341Z,93.62
2022-09-27T17:37:37.388Z,93.95
2022-09-27T17:40:07.722Z,95.98
2022-09-27T17:42:37.061Z,93.65
2022-09-27T17:45:05.423Z,93.74
2022-09-27T17:47:50.663Z,93.94
2022-09-27T17:50:28.773Z,94.09
2022-09-27T17:52:58.809Z,94.11
2022-09-27T17:55:28.224Z,94.17
2022-09-27T17:57:56.270Z,94.98
2022-09-27T18:00:24.155Z,95.41
2022-09-27T18:02:52.821Z,95.46
2022-09-27T18:05:21.785Z,94.25
2022-09-27T18:07:50.074Z,94.31
2022-09-27T18:10:18.912Z,93.88
2022-09-27T18:12:48.198Z,93.00
2022-09-27T18:15:23.097Z,93.38
2022-09-27T18:17:57.205Z,93.11
2022-09-27T18:20:25.814Z,92.94
2022-09-27T18:22:53.997Z,93.13
2022-09-27T18:25:21.993Z,92.92
2022-09-27T18:27:52.156Z,93.28
2022-09-27T18:30:20.103Z,93.16
2022-09-27T18:32:50.464Z,94.09
2022-09-27T18:35:19.955Z,93.35
2022-09-27T18:37:48.076Z,93.27
2022-09-27T18:40:24.202Z,92.68
2022-09-27T18:43:06.069Z,93.84
2022-09-27T18:45:36.953Z,92.34
2022-09-27T18:48:06.003Z,92.42
2022-09-27T18:50:37.862Z,92.72
2022-09-27T18:53:05.632Z,90.40
2022-09-27T18:55:36.997Z,89.48
2022-09-27T18:58:06.183Z,88.76
2022-09-27T19:00:34.063Z,88.12
2022-09-27T19:03:02.029Z,88.40
2022-09-27T19:05:29.815Z,88.91
2022-09-27T19:07:57.671Z,88.54
2022-09-27T19:10:25.411Z,88.84
2022-09-27T19:12:56.687Z,91.31
2022-09-27T19:15:26.631Z,89.76
2022-09-27T19:17:54.849Z,90.33
2022-09-27T19:20:22.748Z,90.84
2022-09-27T19:22:50.575Z,89.74
2022-09-27T19:25:18.433Z,91.55
2022-09-27T19:27:46.267Z,89.79
2022-09-27T19:30:14.884Z,89.40
2022-09-27T19:32:44.139Z,89.73
2022-09-27T19:35:12.492Z,88.88
2022-09-27T19:37:40.275Z,88.47
2022-09-27T19:40:08.782Z,87.11
2022-09-27T19:42:36.608Z,88.09
2022-09-27T19:45:08.053Z,87.58
2022-09-27T19:47:39.175Z,88.16
2022-09-27T19:50:09.563Z,87.36
2022-09-27T19:52:38.192Z,88.33
2022-09-27T19:55:07.139Z,87.36
2022-09-27T19:57:34.964Z,87.50
2022-09-27T20:00:03.249Z,87.19
2022-09-27T20:02:31.345Z,86.58
2022-09-27T20:04:59.598Z,86.66
2022-09-27T20:07:28.869Z,87.04
2022-09-27T20:09:56.637Z,86.36
2022-09-27T20:12:24.601Z,86.64
2022-09-27T20:14:52.449Z,87.22
2022-09-27T20:17:20.299Z,86.92
2022-09-27T20:19:48.141Z,87.63
2022-09-27T20:22:16.153Z,86.70
2022-09-27T20:24:45.392Z,86.73
2022-09-27T20:27:13.614Z,86.91
2022-09-27T20:29:41.509Z,86.06
2022-09-27T20:32:26.678Z,87.22
2022-09-27T20:34:54.848Z,89.39
2022-09-27T20:37:22.999Z,88.56
2022-09-27T20:39:53.731Z,87.58
2022-09-27T20:42:21.733Z,89.40
2022-09-27T20:44:53.965Z,89.86
2022-09-27T20:47:22.917Z,88.81
2022-09-27T20:49:50.687Z,88.93
2022-09-27T20:52:19.536Z,89.12
2022-09-27T20:54:47.416Z,88.09
2022-09-27T20:57:16.832Z,88.51
2022-09-27T20:59:44.725Z,88.82
2022-09-27T21:02:12.669Z,89.18
2022-09-27T21:04:40.918Z,88.92
2022-09-27T21:07:08.869Z,87.96
2022-09-27T21:09:38.639Z,89.33
2022-09-27T21:12:06.589Z,88.91
2022-09-27T21:14:35.755Z,89.24
2022-09-27T21:17:03.538Z,89.85
2022-09-27T21:19:31.346Z,90.03
2022-09-27T21:21:59.226Z,90.57
2022-09-27T21:24:27.017Z,90.65
2022-09-27T21:26:55.947Z,91.07
2022-09-27T21:29:23.848Z,91.05
2022-09-27T21:31:53.057Z,91.30
2022-09-27T21:34:20.893Z,91.55
2022-09-27T21:36:48.792Z,90.84
2022-09-27T21:39:16.842Z,90.82
2022-09-27T21:41:45.224Z,91.66
2022-09-27T21:44:13.270Z,92.29
2022-09-27T21:46:43.574Z,91.19
2022-09-27T21:49:12.941Z,91.54
2022-09-27T21:51:42.175Z,91.41
2022-09-27T21:54:13.137Z,91.71
2022-09-27T21:56:41.520Z,92.69
2022-09-27T21:59:12.675Z,92.99
2022-09-27T22:01:42.953Z,93.33
2022-09-27T22:04:12.656Z,93.24
2022-09-27T22:06:40.957Z,93.08
2022-09-27T22:09:12.570Z,92.80
2022-09-27T22:11:56.711Z,92.79
2022-09-27T22:14:24.515Z,92.74
2022-09-27T22:16:52.333Z,92.58
2022-09-27T22:19:21.630Z,93.23
2022-09-27T22:21:49.446Z,92.92
2022-09-27T22:24:18.504Z,93.09
2022-09-27T22:26:48.690Z,92.64
2022-09-27T22:29:16.883Z,92.65
2022-09-27T22:31:44.955Z,92.55
2022-09-27T22:34:18.300Z,92.28
2022-09-27T22:36:47.704Z,92.37
2022-09-27T22:39:15.682Z,92.16
2022-09-27T22:41:43.515Z,91.84
2022-09-27T22:44:11.362Z,91.79
2022-09-27T22:46:39.202Z,92.44
2022-09-27T22:49:07.137Z,91.55
2022-09-27T22:51:35.044Z,91.50
2022-09-27T22:54:04.330Z,91.42
2022-09-27T22:56:32.134Z,90.78
2022-09-27T22:58:59.897Z,90.78
2022-09-27T23:01:27.577Z,92.27
2022-09-27T23:03:55.886Z,90.97
2022-09-27T23:06:24.230Z,91.20
2022-09-27T23:08:53.518Z,90.70
2022-09-27T23:11:23.706Z,90.82
2022-09-27T23:13:52.318Z,90.89
2022-09-27T23:16:24.246Z,90.84
2022-09-27T23:18:53.871Z,90.61
2022-09-27T23:21:22.785Z,91.12
2022-09-27T23:23:52.794Z,91.23
2022-09-27T23:26:24.330Z,91.06
2022-09-27T23:28:53.533Z,91.15
2022-09-27T23:31:23.647Z,91.03
2022-09-27T23:33:52.595Z,90.69
2022-09-27T23:36:23.394Z,91.00
2022-09-27T23:38:51.137Z,90.90
2022-09-27T23:41:19.605Z,91.09
2022-09-27T23:43:49.769Z,91.08
2022-09-27T23:46:19.089Z,91.61
2022-09-27T23:48:46.881Z,91.63
2022-09-27T23:51:14.814Z,91.55
2022-09-27T23:53:42.845Z,91.73
2022-09-27T23:56:14.218Z,92.43
2022-09-27T23:58:44.162Z,92.65
